Time;durP1;ratioP1;P1;durP2;ratioP2;P2;SDS_P1;SDS_P2;PMS_P1;PMS_P2;Temp;Humidity;BMP_temperature;BMP_pressure;BME280_temperature;BME280_humidity;BME280_pressure;Samples;Min_cycle;Max_cycle;Signal;HPM_P1;HPM_P2
2021/12/27 00:02:10;;;;;;;29.35;14.75;;;;;;;;;;4991355;28;20033;-87
2021/12/27 00:04:36;;;;;;;36.83;15.25;;;;;;;;;;4992023;28;20451;-84
2021/12/27 00:07:02;;;;;;;33.42;16.00;;;;;;;;;;4991271;28;20074;-88
2021/12/27 00:09:28;;;;;;;32.45;16.20;;;;;;;;;;4991903;28;20042;-88
2021/12/27 00:11:54;;;;;;;29.92;15.23;;;;;;;;;;4991542;28;20070;-88
2021/12/27 00:14:20;;;;;;;33.13;14.98;;;;;;;;;;4989968;28;20078;-86
2021/12/27 00:16:46;;;;;;;29.85;14.13;;;;;;;;;;4990267;28;20456;-89
2021/12/27 00:19:11;;;;;;;34.90;15.73;;;;;;;;;;4990293;28;20084;-87
2021/12/27 00:21:37;;;;;;;29.88;14.95;;;;;;;;;;4995158;28;20090;-87
2021/12/27 00:24:03;;;;;;;33.95;16.13;;;;;;;;;;5010841;28;20015;-88
2021/12/27 00:26:29;;;;;;;28.25;15.07;;;;;;;;;;5012433;28;20034;-88
2021/12/27 00:28:55;;;;;;;32.05;15.52;;;;;;;;;;5018208;28;20081;-87
2021/12/27 00:31:21;;;;;;;31.83;15.55;;;;;;;;;;4991175;28;20154;-86
2021/12/27 00:33:47;;;;;;;30.92;14.85;;;;;;;;;;4992686;28;20050;-87
2021/12/27 00:36:13;;;;;;;27.67;13.82;;;;;;;;;;4995658;28;20481;-87
2021/12/27 00:38:39;;;;;;;29.60;14.90;;;;;;;;;;4995143;28;20130;-86
2021/12/27 00:41:05;;;;;;;28.38;13.75;;;;;;;;;;4996824;28;20137;-86
2021/12/27 00:43:31;;;;;;;26.10;14.18;;;;;;;;;;4996088;28;20078;-88
2021/12/27 00:45:56;;;;;;;29.55;14.38;;;;;;;;;;4995327;28;20037;-86
2021/12/27 00:48:23;;;;;;;28.30;14.65;;;;;;;;;;4994776;28;20034;-86
2021/12/27 00:50:48;;;;;;;25.60;14.05;;;;;;;;;;4994565;28;20037;-87
2021/12/27 00:53:14;;;;;;;31.55;14.60;;;;;;;;;;4993011;28;20478;-87
2021/12/27 00:55:40;;;;;;;27.00;13.25;;;;;;;;;;4994828;28;20109;-87
2021/12/27 00:58:06;;;;;;;32.10;14.02;;;;;;;;;;4994744;28;20034;-87
2021/12/27 01:00:36;;;;;;;27.83;14.05;;;;;;;;;;4994557;28;20104;-86
2021/12/27 01:03:02;;;;;;;24.52;13.02;;;;;;;;;;4994537;28;20416;-87
2021/12/27 01:05:28;;;;;;;29.65;15.35;;;;;;;;;;4994485;28;20022;-86
2021/12/27 01:07:54;;;;;;;29.10;14.98;;;;;;;;;;4994999;28;20108;-87
2021/12/27 01:10:55;;;;;;;26.35;14.52;;;;;;;;;;4995243;28;20384;-85
2021/12/27 01:13:36;;;;;;;27.85;14.32;;;;;;;;;;4994343;28;20027;-86
2021/12/27 01:16:12;;;;;;;26.05;13.80;;;;;;;;;;4994266;28;20441;-86
2021/12/27 01:18:45;;;;;;;26.83;13.55;;;;;;;;;;4994530;28;20035;-86
2021/12/27 01:21:12;;;;;;;25.30;12.73;;;;;;;;;;4994018;28;20485;-86
2021/12/27 01:23:38;;;;;;;25.60;13.20;;;;;;;;;;4992624;28;20069;-85
2021/12/27 01:26:04;;;;;;;25.35;13.05;;;;;;;;;;4993803;28;20400;-86
2021/12/27 01:28:30;;;;;;;24.25;13.10;;;;;;;;;;4993909;28;20202;-86
2021/12/27 01:31:03;;;;;;;27.27;12.80;;;;;;;;;;4993970;28;20392;-86
2021/12/27 01:33:31;;;;;;;28.92;14.38;;;;;;;;;;4993486;28;20066;-85
2021/12/27 01:35:59;;;;;;;27.52;13.93;;;;;;;;;;4994153;28;20046;-85
2021/12/27 01:38:25;;;;;;;22.80;12.52;;;;;;;;;;4993623;28;20405;-87
2021/12/27 01:40:53;;;;;;;25.77;13.38;;;;;;;;;;4993935;28;20507;-86
2021/12/27 01:43:25;;;;;;;30.08;14.38;;;;;;;;;;5008625;28;20051;-87
2021/12/27 01:45:59;;;;;;;27.42;13.65;;;;;;;;;;4993594;28;20041;-85
2021/12/27 01:48:29;;;;;;;30.00;14.07;;;;;;;;;;4994185;28;20034;-86
2021/12/27 01:50:56;;;;;;;29.63;14.55;;;;;;;;;;4994950;28;20352;-86
2021/12/27 01:53:25;;;;;;;28.83;13.75;;;;;;;;;;5009666;28;20622;-86
2021/12/27 01:55:53;;;;;;;27.00;14.13;;;;;;;;;;4995425;28;20492;-86
2021/12/27 01:58:20;;;;;;;30.30;13.93;;;;;;;;;;5010089;28;20042;-87
2021/12/27 02:00:49;;;;;;;26.95;14.18;;;;;;;;;;4995870;28;20034;-88
2021/12/27 02:03:21;;;;;;;26.50;13.20;;;;;;;;;;5009086;28;20134;-85
2021/12/27 02:05:50;;;;;;;32.45;13.55;;;;;;;;;;4991709;28;20030;-85
2021/12/27 02:08:17;;;;;;;27.60;13.90;;;;;;;;;;4992541;28;20038;-85
2021/12/27 02:10:43;;;;;;;28.80;13.02;;;;;;;;;;4998451;28;20045;-87
2021/12/27 02:13:10;;;;;;;27.27;13.80;;;;;;;;;;5006737;28;20026;-86
2021/12/27 02:15:36;;;;;;;32.85;15.10;;;;;;;;;;5006846;28;20031;-86
2021/12/27 02:18:04;;;;;;;32.03;15.48;;;;;;;;;;5007362;28;20034;-87
2021/12/27 02:20:34;;;;;;;30.77;14.18;;;;;;;;;;5009838;28;20030;-87
2021/12/27 02:23:07;;;;;;;34.05;15.52;;;;;;;;;;5016073;28;20011;-87
2021/12/27 02:25:37;;;;;;;32.53;15.02;;;;;;;;;;5015916;28;20042;-85
2021/12/27 02:28:05;;;;;;;27.92;14.10;;;;;;;;;;5030839;28;20036;-86
2021/12/27 02:30:33;;;;;;;31.77;13.60;;;;;;;;;;5007306;28;20438;-86
2021/12/27 02:33:03;;;;;;;35.00;14.63;;;;;;;;;;4992639;28;20050;-87
2021/12/27 02:35:38;;;;;;;36.08;14.50;;;;;;;;;;4977171;28;20042;-87
2021/12/27 02:38:06;;;;;;;31.33;13.48;;;;;;;;;;4994476;28;20046;-87
2021/12/27 02:40:33;;;;;;;29.58;14.30;;;;;;;;;;4994120;28;20046;-86
2021/12/27 02:43:08;;;;;;;33.45;15.05;;;;;;;;;;4993856;28;20053;-86
2021/12/27 02:45:40;;;;;;;37.80;15.63;;;;;;;;;;4993555;28;20050;-86
2021/12/27 02:48:07;;;;;;;34.63;14.35;;;;;;;;;;4995480;28;20038;-88
2021/12/27 02:50:35;;;;;;;36.65;16.27;;;;;;;;;;5016896;28;20010;-88
2021/12/27 02:53:02;;;;;;;39.47;15.90;;;;;;;;;;5016773;28;20022;-87
2021/12/27 02:55:29;;;;;;;33.70;15.95;;;;;;;;;;5016270;28;20047;-87
2021/12/27 02:57:55;;;;;;;38.30;15.43;;;;;;;;;;5017023;28;20034;-86
2021/12/27 03:00:27;;;;;;;36.97;16.75;;;;;;;;;;5014893;28;20037;-88
2021/12/27 03:02:54;;;;;;;43.83;16.83;;;;;;;;;;5014601;28;20048;-88
2021/12/27 03:05:22;;;;;;;35.50;14.73;;;;;;;;;;5014160;28;20026;-86
2021/12/27 03:07:50;;;;;;;31.00;14.80;;;;;;;;;;5016011;28;20028;-87
2021/12/27 03:10:19;;;;;;;41.47;15.85;;;;;;;;;;5016267;28;20042;-88
2021/12/27 03:12:46;;;;;;;34.83;14.82;;;;;;;;;;5016979;28;20033;-87
2021/12/27 03:15:19;;;;;;;44.88;16.10;;;;;;;;;;5016584;28;20035;-86
2021/12/27 03:17:49;;;;;;;41.30;16.08;;;;;;;;;;5017141;28;20041;-86
2021/12/27 03:20:17;;;;;;;77.00;18.15;;;;;;;;;;5016473;28;20037;-86
2021/12/27 03:22:46;;;;;;;61.65;18.77;;;;;;;;;;5016740;28;20038;-86
2021/12/27 03:25:18;;;;;;;141.02;21.75;;;;;;;;;;5016647;28;20037;-87
2021/12/27 03:27:45;;;;;;;106.55;21.42;;;;;;;;;;5016613;28;20022;-87
2021/12/27 03:30:14;;;;;;;58.55;18.85;;;;;;;;;;5016135;28;20049;-86
2021/12/27 03:32:40;;;;;;;65.40;18.30;;;;;;;;;;5016312;28;20050;-86
2021/12/27 03:35:11;;;;;;;96.50;18.98;;;;;;;;;;5016661;28;20165;-85
2021/12/27 03:37:41;;;;;;;;;;;;;;;;;;5017935;28;20031;-87
2021/12/27 03:40:09;;;;;;;53.47;17.10;;;;;;;;;;5018376;28;19912;-86
2021/12/27 03:42:35;;;;;;;55.50;17.90;;;;;;;;;;5018283;28;20022;-88
2021/12/27 03:45:03;;;;;;;144.73;22.23;;;;;;;;;;5018283;28;20036;-85
2021/12/27 03:47:29;;;;;;;75.75;20.02;;;;;;;;;;5033568;28;20031;-86
2021/12/27 03:49:54;;;;;;;94.13;19.58;;;;;;;;;;5018179;28;20029;-87
2021/12/27 03:52:20;;;;;;;57.70;18.23;;;;;;;;;;5018210;28;20030;-87
2021/12/27 03:54:46;;;;;;;44.97;17.20;;;;;;;;;;5005553;28;20104;-87
2021/12/27 03:57:14;;;;;;;45.03;17.25;;;;;;;;;;4995422;28;20065;-86
2021/12/27 04:02:11;;;;;;;45.65;16.40;;;;;;;;;;4993823;28;20121;-87
2021/12/27 04:04:41;;;;;;;56.83;18.65;;;;;;;;;;5013382;28;20030;-85
2021/12/27 04:07:09;;;;;;;55.95;17.70;;;;;;;;;;5016305;28;20030;-85
2021/12/27 04:09:36;;;;;;;55.92;17.13;;;;;;;;;;5010302;28;20042;-86
2021/12/27 04:12:04;;;;;;;53.75;17.85;;;;;;;;;;4993822;28;20034;-85
2021/12/27 04:14:30;;;;;;;41.63;16.67;;;;;;;;;;4993766;28;20388;-86
2021/12/27 04:16:56;;;;;;;39.58;15.40;;;;;;;;;;4993871;28;20038;-87
2021/12/27 04:19:22;;;;;;;103.53;20.33;;;;;;;;;;4993481;28;20037;-86
2021/12/27 04:21:48;;;;;;;335.10;26.77;;;;;;;;;;4993399;28;20113;-87
2021/12/27 04:24:14;;;;;;;197.85;22.63;;;;;;;;;;5007596;28;20100;-85
2021/12/27 04:26:40;;;;;;;233.85;25.98;;;;;;;;;;4993449;28;20455;-84
2021/12/27 04:29:06;;;;;;;103.78;20.73;;;;;;;;;;4994207;28;20086;-85
2021/12/27 04:31:32;;;;;;;111.82;20.02;;;;;;;;;;4992517;28;20110;-86
2021/12/27 04:33:58;;;;;;;162.90;22.08;;;;;;;;;;5007356;28;20050;-85
2021/12/27 04:36:24;;;;;;;69.78;19.67;;;;;;;;;;4993114;28;20453;-85
2021/12/27 04:38:50;;;;;;;79.18;19.70;;;;;;;;;;4993413;28;20034;-85
2021/12/27 04:41:22;;;;;;;253.23;24.65;;;;;;;;;;4994028;28;20031;-85
2021/12/27 04:43:48;;;;;;;90.70;18.08;;;;;;;;;;5006574;28;20027;-85
2021/12/27 04:46:14;;;;;;;83.85;17.88;;;;;;;;;;5012341;28;20055;-86
2021/12/27 04:48:40;;;;;;;77.07;18.38;;;;;;;;;;5010274;28;20046;-85
2021/12/27 04:51:06;;;;;;;67.80;17.33;;;;;;;;;;4993376;28;20042;-86
2021/12/27 04:53:31;;;;;;;52.95;15.05;;;;;;;;;;4992420;28;20061;-85
2021/12/27 04:55:57;;;;;;;68.60;19.55;;;;;;;;;;4991989;28;20125;-85
2021/12/27 04:58:23;;;;;;;52.42;16.40;;;;;;;;;;5006659;28;20553;-85
2021/12/27 05:00:51;;;;;;;67.75;16.35;;;;;;;;;;4992018;28;20114;-86
2021/12/27 05:03:17;;;;;;;49.15;15.65;;;;;;;;;;4990770;28;20477;-83
2021/12/27 05:05:44;;;;;;;53.92;15.88;;;;;;;;;;4991009;28;20088;-84
2021/12/27 05:08:11;;;;;;;47.63;15.25;;;;;;;;;;4990789;28;20034;-86
2021/12/27 05:10:37;;;;;;;49.63;14.55;;;;;;;;;;4991091;28;20495;-85
2021/12/27 05:13:04;;;;;;;44.22;16.00;;;;;;;;;;4989308;28;20472;-85
2021/12/27 05:15:33;;;;;;;39.95;14.65;;;;;;;;;;4990793;28;20492;-85
2021/12/27 05:17:59;;;;;;;60.35;16.80;;;;;;;;;;4991144;28;20042;-86
2021/12/27 05:20:25;;;;;;;47.75;15.35;;;;;;;;;;4992004;28;20047;-86
2021/12/27 05:22:51;;;;;;;52.40;16.27;;;;;;;;;;4994482;28;20069;-85
2021/12/27 05:25:17;;;;;;;36.42;13.57;;;;;;;;;;4994887;28;20476;-86
2021/12/27 05:27:44;;;;;;;36.22;14.23;;;;;;;;;;4992950;28;20040;-87
2021/12/27 05:30:12;;;;;;;32.65;13.98;;;;;;;;;;4993484;28;20509;-87
2021/12/27 05:32:40;;;;;;;34.78;14.15;;;;;;;;;;4994087;28;20050;-88
2021/12/27 05:35:08;;;;;;;42.20;13.80;;;;;;;;;;4993851;28;20050;-87
2021/12/27 05:37:34;;;;;;;36.67;14.13;;;;;;;;;;4994203;28;20038;-86
2021/12/27 05:40:05;;;;;;;36.40;13.95;;;;;;;;;;4994271;28;20035;-87
2021/12/27 05:42:32;;;;;;;34.58;13.98;;;;;;;;;;4994171;28;20493;-86
2021/12/27 05:44:58;;;;;;;39.13;13.40;;;;;;;;;;5008536;28;20042;-87
2021/12/27 05:47:27;;;;;;;36.10;13.43;;;;;;;;;;4994036;28;20380;-87
2021/12/27 05:49:53;;;;;;;35.90;13.07;;;;;;;;;;4994018;28;20042;-86
2021/12/27 05:52:19;;;;;;;36.97;13.35;;;;;;;;;;5008472;28;20424;-86
2021/12/27 05:54:45;;;;;;;34.78;12.93;;;;;;;;;;4993359;28;20039;-87
2021/12/27 05:57:11;;;;;;;34.05;13.75;;;;;;;;;;4993517;28;20042;-88
2021/12/27 05:59:37;;;;;;;36.58;14.07;;;;;;;;;;4994441;28;20084;-86
2021/12/27 06:02:03;;;;;;;37.45;14.20;;;;;;;;;;4994042;28;20069;-87
2021/12/27 06:04:29;;;;;;;39.92;13.95;;;;;;;;;;4994197;28;20507;-87
2021/12/27 06:06:55;;;;;;;38.33;14.88;;;;;;;;;;4994564;28;20026;-87
2021/12/27 06:09:20;;;;;;;37.42;14.57;;;;;;;;;;4993820;28;20058;-86
2021/12/27 06:11:49;;;;;;;37.63;14.60;;;;;;;;;;5006835;28;20073;-88
2021/12/27 06:14:15;;;;;;;44.95;14.18;;;;;;;;;;4993588;28;20547;-86
2021/12/27 06:16:41;;;;;;;35.63;12.88;;;;;;;;;;4976021;28;20125;-88
2021/12/27 06:19:07;;;;;;;36.13;13.38;;;;;;;;;;4993650;28;20053;-87
2021/12/27 06:21:33;;;;;;;32.22;13.25;;;;;;;;;;4993852;28;20066;-86
2021/12/27 06:24:00;;;;;;;36.42;13.13;;;;;;;;;;4993565;28;20480;-86
2021/12/27 06:26:26;;;;;;;39.17;14.50;;;;;;;;;;4992649;28;20045;-86
2021/12/27 06:28:52;;;;;;;39.13;14.43;;;;;;;;;;4993487;28;20040;-86
2021/12/27 06:31:19;;;;;;;40.33;13.57;;;;;;;;;;5006408;28;20097;-87
2021/12/27 06:33:46;;;;;;;37.50;13.88;;;;;;;;;;4993106;28;20055;-87
2021/12/27 06:36:12;;;;;;;37.85;13.48;;;;;;;;;;4993174;28;20507;-86
2021/12/27 06:38:38;;;;;;;44.17;13.48;;;;;;;;;;4992698;28;20034;-84
2021/12/27 06:41:04;;;;;;;45.55;14.20;;;;;;;;;;4993130;28;20049;-89
2021/12/27 06:43:32;;;;;;;43.92;15.25;;;;;;;;;;5008243;28;20038;-86
2021/12/27 06:45:59;;;;;;;47.10;15.50;;;;;;;;;;4992919;28;20030;-84
2021/12/27 06:48:26;;;;;;;41.92;14.05;;;;;;;;;;4992893;28;20045;-85
2021/12/27 06:50:52;;;;;;;38.97;14.85;;;;;;;;;;4989444;28;20473;-85
2021/12/27 06:53:18;;;;;;;42.25;13.90;;;;;;;;;;4973240;28;20106;-85
2021/12/27 06:55:46;;;;;;;39.13;14.90;;;;;;;;;;4972746;28;20050;-86
2021/12/27 06:58:12;;;;;;;43.25;15.27;;;;;;;;;;4978112;28;20058;-85
2021/12/27 07:00:42;;;;;;;45.17;15.50;;;;;;;;;;4981417;28;20049;-85
2021/12/27 07:03:08;;;;;;;40.85;14.70;;;;;;;;;;4981471;28;20041;-85
2021/12/27 07:05:34;;;;;;;42.35;14.68;;;;;;;;;;4982023;28;20038;-85
2021/12/27 07:08:00;;;;;;;38.50;13.40;;;;;;;;;;4981252;28;20031;-85
2021/12/27 07:10:26;;;;;;;37.25;13.90;;;;;;;;;;4984967;28;20122;-85
2021/12/27 07:12:52;;;;;;;39.28;15.18;;;;;;;;;;4993693;28;20061;-85
2021/12/27 07:15:18;;;;;;;37.20;13.82;;;;;;;;;;5001506;28;20393;-87
2021/12/27 07:17:44;;;;;;;38.78;17.92;;;;;;;;;;5002178;28;20041;-79
2021/12/27 07:20:10;;;;;;;47.70;17.55;;;;;;;;;;4990427;28;20110;-86
2021/12/27 07:22:37;;;;;;;51.78;20.60;;;;;;;;;;4998355;28;20030;-82
2021/12/27 07:25:03;;;;;;;48.30;17.73;;;;;;;;;;4997287;28;20034;-85
2021/12/27 07:27:29;;;;;;;46.17;16.92;;;;;;;;;;4990948;28;20046;-78
2021/12/27 07:29:55;;;;;;;39.60;14.40;;;;;;;;;;4993402;28;20046;-80
2021/12/27 07:32:21;;;;;;;42.20;14.38;;;;;;;;;;4992259;28;20027;-81
2021/12/27 07:34:48;;;;;;;40.60;13.93;;;;;;;;;;4993119;28;20031;-82
2021/12/27 07:37:17;;;;;;;42.88;14.35;;;;;;;;;;5018927;28;20060;-81
2021/12/27 07:39:44;;;;;;;39.58;14.75;;;;;;;;;;5014829;28;20030;-82
2021/12/27 07:42:10;;;;;;;43.25;14.48;;;;;;;;;;5029726;28;20042;-82
2021/12/27 07:44:36;;;;;;;44.15;14.77;;;;;;;;;;5013783;28;20036;-80
2021/12/27 07:47:02;;;;;;;64.03;24.33;;;;;;;;;;5013166;28;20026;-78
2021/12/27 07:49:28;;;;;;;84.18;32.95;;;;;;;;;;5010122;28;20036;-78
2021/12/27 07:51:54;;;;;;;55.35;19.08;;;;;;;;;;5027456;28;20048;-79
2021/12/27 07:54:26;;;;;;;48.78;17.38;;;;;;;;;;5006204;28;20022;-77
2021/12/27 07:56:52;;;;;;;46.45;15.38;;;;;;;;;;5004819;28;20369;-79
2021/12/27 07:59:19;;;;;;;44.65;14.07;;;;;;;;;;5000177;28;20313;-77
2021/12/27 08:01:45;;;;;;;53.83;15.20;;;;;;;;;;5007715;28;20030;-79
2021/12/27 08:04:11;;;;;;;54.13;15.25;;;;;;;;;;5007377;28;20038;-78
2021/12/27 08:06:37;;;;;;;49.03;15.07;;;;;;;;;;5009191;28;20046;-77
2021/12/27 08:09:05;;;;;;;49.08;16.30;;;;;;;;;;5012463;28;20038;-81
2021/12/27 08:11:31;;;;;;;48.35;15.32;;;;;;;;;;5014602;28;20036;-82
2021/12/27 08:13:57;;;;;;;53.30;16.50;;;;;;;;;;5012082;28;20219;-81
2021/12/27 08:16:24;;;;;;;76.45;17.92;;;;;;;;;;4993604;28;20042;-78
2021/12/27 08:18:54;;;;;;;69.18;16.90;;;;;;;;;;4990978;28;20481;-78
2021/12/27 08:21:21;;;;;;;57.65;17.20;;;;;;;;;;4988955;28;20042;-80
2021/12/27 08:23:48;;;;;;;65.78;17.02;;;;;;;;;;4991698;28;20054;-79
2021/12/27 08:26:14;;;;;;;67.75;17.30;;;;;;;;;;4993019;28;20513;-81
2021/12/27 08:28:41;;;;;;;75.60;18.45;;;;;;;;;;5005710;28;20037;-78
2021/12/27 08:31:07;;;;;;;65.93;18.42;;;;;;;;;;4988631;28;20058;-80
2021/12/27 08:33:33;;;;;;;61.47;17.65;;;;;;;;;;4978341;28;20050;-81
2021/12/27 08:35:59;;;;;;;69.25;17.35;;;;;;;;;;4972579;28;20421;-83
2021/12/27 08:38:25;;;;;;;56.42;16.90;;;;;;;;;;4990953;28;20507;-80
2021/12/27 08:40:51;;;;;;;61.33;17.15;;;;;;;;;;4990728;28;20038;-82
2021/12/27 08:43:17;;;;;;;57.28;17.88;;;;;;;;;;4992817;28;20488;-82
2021/12/27 08:45:43;;;;;;;59.28;17.35;;;;;;;;;;4990514;28;20049;-81
2021/12/27 08:48:09;;;;;;;70.65;17.60;;;;;;;;;;4989128;28;20042;-81
2021/12/27 08:50:37;;;;;;;64.05;17.40;;;;;;;;;;4990105;28;20039;-80
2021/12/27 08:53:05;;;;;;;54.80;15.63;;;;;;;;;;5005171;28;20045;-80
2021/12/27 08:55:33;;;;;;;63.90;16.63;;;;;;;;;;4993509;28;20046;-80
2021/12/27 08:57:59;;;;;;;97.57;19.02;;;;;;;;;;4993218;28;20401;-79
2021/12/27 09:00:25;;;;;;;56.60;17.67;;;;;;;;;;4990909;28;20041;-81
2021/12/27 09:02:50;;;;;;;50.50;16.42;;;;;;;;;;4987980;28;20069;-79
2021/12/27 09:05:16;;;;;;;50.97;16.13;;;;;;;;;;4993562;28;20048;-80
2021/12/27 09:07:42;;;;;;;129.35;18.95;;;;;;;;;;4994581;28;20453;-79
2021/12/27 09:10:10;;;;;;;69.78;17.85;;;;;;;;;;4990009;28;20052;-81
2021/12/27 09:12:40;;;;;;;158.40;20.08;;;;;;;;;;4992132;28;20030;-80
2021/12/27 09:15:09;;;;;;;61.05;17.90;;;;;;;;;;4987746;28;20042;-79
2021/12/27 09:17:36;;;;;;;68.00;17.75;;;;;;;;;;4985931;28;20373;-79
2021/12/27 09:20:03;;;;;;;63.70;17.15;;;;;;;;;;4978771;28;20469;-80
2021/12/27 09:22:29;;;;;;;68.53;17.05;;;;;;;;;;4992152;28;20035;-79
2021/12/27 09:24:55;;;;;;;85.32;17.30;;;;;;;;;;4993137;28;20045;-80
2021/12/27 09:27:25;;;;;;;178.27;21.40;;;;;;;;;;4993705;28;20125;-80
2021/12/27 09:29:51;;;;;;;64.28;17.08;;;;;;;;;;5008204;28;20049;-79
2021/12/27 09:32:17;;;;;;;79.68;18.58;;;;;;;;;;4993518;28;20038;-80
2021/12/27 09:34:44;;;;;;;88.45;18.90;;;;;;;;;;4993616;28;20053;-79
2021/12/27 09:37:12;;;;;;;63.03;19.10;;;;;;;;;;4993913;28;20035;-79
2021/12/27 09:39:38;;;;;;;124.15;19.33;;;;;;;;;;4993695;28;20023;-80
2021/12/27 09:42:05;;;;;;;85.35;21.73;;;;;;;;;;5007838;28;20133;-79
2021/12/27 09:44:34;;;;;;;63.10;19.50;;;;;;;;;;4993653;28;20037;-79
2021/12/27 09:47:00;;;;;;;96.13;19.92;;;;;;;;;;4984440;28;20037;-79
2021/12/27 09:49:29;;;;;;;76.50;19.27;;;;;;;;;;5007905;28;20042;-79
2021/12/27 09:51:58;;;;;;;74.80;20.38;;;;;;;;;;4991964;28;20038;-78
2021/12/27 09:54:28;;;;;;;76.68;21.05;;;;;;;;;;4989914;28;20513;-79
2021/12/27 09:56:54;;;;;;;69.75;20.35;;;;;;;;;;4979708;28;20520;-78
2021/12/27 09:59:20;;;;;;;73.20;21.27;;;;;;;;;;4993231;28;20543;-77
2021/12/27 10:01:47;;;;;;;77.78;20.92;;;;;;;;;;4991090;28;20061;-81
2021/12/27 10:04:13;;;;;;;64.53;20.10;;;;;;;;;;4976772;28;20042;-79
2021/12/27 10:06:38;;;;;;;109.65;22.83;;;;;;;;;;4987070;28;20041;-79
2021/12/27 10:09:06;;;;;;;83.70;21.88;;;;;;;;;;4995731;28;20125;-81
2021/12/27 10:11:36;;;;;;;82.85;23.05;;;;;;;;;;5002600;28;20178;-79
2021/12/27 10:14:09;;;;;;;66.10;21.25;;;;;;;;;;4991601;28;20045;-79
2021/12/27 10:16:39;;;;;;;111.32;23.08;;;;;;;;;;4975171;28;20049;-83
2021/12/27 10:19:10;;;;;;;76.53;21.52;;;;;;;;;;4992781;28;20043;-81
2021/12/27 10:21:41;;;;;;;;;;;;;;;;;;4981001;28;20612;-80
2021/12/27 10:24:20;;;;;;;73.17;20.23;;;;;;;;;;4974305;28;19918;-79
2021/12/27 10:26:49;;;;;;;76.85;20.45;;;;;;;;;;5007155;28;20049;-79
2021/12/27 10:29:23;;;;;;;58.88;19.52;;;;;;;;;;4992543;28;20223;-80
2021/12/27 10:31:59;;;;;;;58.60;20.15;;;;;;;;;;4990967;28;20489;-79
2021/12/27 10:34:52;;;;;;;56.45;19.73;;;;;;;;;;4976493;28;20116;-79
2021/12/27 10:37:30;;;;;;;59.50;18.60;;;;;;;;;;4980836;28;20046;-77
2021/12/27 10:40:12;;;;;;;70.80;27.23;;;;;;;;;;4991963;28;20049;-78
2021/12/27 10:42:43;;;;;;;57.78;20.67;;;;;;;;;;4977229;28;20030;-79
2021/12/27 10:45:13;;;;;;;56.03;19.20;;;;;;;;;;4987452;28;20030;-79
2021/12/27 10:47:47;;;;;;;54.15;19.52;;;;;;;;;;4984922;28;20053;-80
2021/12/27 10:50:26;;;;;;;53.85;18.35;;;;;;;;;;4989319;28;20034;-80
2021/12/27 10:53:02;;;;;;;55.53;18.90;;;;;;;;;;4992952;28;20031;-78
2021/12/27 10:55:34;;;;;;;63.13;20.67;;;;;;;;;;4991043;28;20030;-78
2021/12/27 10:58:19;;;;;;;74.50;20.40;;;;;;;;;;4991465;28;20042;-78
2021/12/27 11:00:49;;;;;;;65.68;22.45;;;;;;;;;;4991945;28;20042;-80
2021/12/27 11:03:36;;;;;;;73.53;24.25;;;;;;;;;;5006639;28;20601;-80
2021/12/27 11:06:05;;;;;;;62.17;21.00;;;;;;;;;;4992301;28;20385;-80
2021/12/27 11:08:33;;;;;;;64.97;19.27;;;;;;;;;;4992172;28;20503;-80
2021/12/27 11:11:00;;;;;;;61.45;19.83;;;;;;;;;;4991907;28;20050;-80
2021/12/27 11:13:28;;;;;;;57.42;19.33;;;;;;;;;;4982238;28;20038;-81
2021/12/27 11:15:55;;;;;;;53.40;19.25;;;;;;;;;;4985836;28;20030;-82
2021/12/27 11:18:21;;;;;;;54.60;19.70;;;;;;;;;;5005701;28;20049;-80
2021/12/27 11:20:54;;;;;;;61.97;20.88;;;;;;;;;;4991988;28;20049;-78
2021/12/27 11:23:23;;;;;;;60.35;20.58;;;;;;;;;;4976364;28;20046;-79
2021/12/27 11:25:59;;;;;;;54.33;19.23;;;;;;;;;;4991164;28;20485;-79
2021/12/27 11:28:35;;;;;;;52.92;18.65;;;;;;;;;;4991242;28;20712;-78
2021/12/27 11:31:24;;;;;;;51.22;18.08;;;;;;;;;;4990995;28;20050;-78
2021/12/27 11:34:05;;;;;;;59.95;20.02;;;;;;;;;;4989330;28;20480;-79
2021/12/27 11:36:34;;;;;;;51.45;17.98;;;;;;;;;;4991244;28;20049;-79
2021/12/27 11:39:16;;;;;;;58.85;18.92;;;;;;;;;;5005253;28;20044;-79
2021/12/27 11:41:42;;;;;;;56.35;19.05;;;;;;;;;;4977778;28;20046;-79
2021/12/27 11:44:12;;;;;;;57.08;19.52;;;;;;;;;;4991396;28;20396;-79
2021/12/27 11:46:46;;;;;;;56.83;19.95;;;;;;;;;;4990930;28;20043;-79
2021/12/27 11:49:13;;;;;;;51.58;18.70;;;;;;;;;;4991651;28;20492;-79
2021/12/27 11:51:40;;;;;;;48.72;19.05;;;;;;;;;;4991112;28;20083;-79
2021/12/27 11:54:29;;;;;;;57.33;20.17;;;;;;;;;;4990665;28;20053;-80
2021/12/27 11:56:55;;;;;;;58.67;19.10;;;;;;;;;;4990569;28;20050;-78
2021/12/27 11:59:21;;;;;;;51.30;19.33;;;;;;;;;;4990265;28;20041;-79
2021/12/27 12:01:49;;;;;;;61.10;19.67;;;;;;;;;;4991368;28;20034;-80
2021/12/27 12:04:45;;;;;;;51.80;18.92;;;;;;;;;;4990744;28;20038;-81
2021/12/27 12:07:34;;;;;;;57.28;19.80;;;;;;;;;;4983527;28;20050;-80
2021/12/27 12:10:02;;;;;;;58.42;19.98;;;;;;;;;;4988127;28;20046;-79
2021/12/27 12:12:28;;;;;;;55.35;18.60;;;;;;;;;;4990988;28;20046;-80
2021/12/27 12:14:56;;;;;;;56.42;19.95;;;;;;;;;;4991045;28;20049;-84
2021/12/27 12:17:50;;;;;;;56.13;19.25;;;;;;;;;;4972695;28;20050;-84
2021/12/27 12:20:36;;;;;;;56.90;19.20;;;;;;;;;;4983975;28;20412;-83
2021/12/27 12:23:07;;;;;;;59.25;19.73;;;;;;;;;;4991963;28;20070;-81
2021/12/27 12:25:34;;;;;;;60.92;20.08;;;;;;;;;;4991053;28;20041;-81
2021/12/27 12:28:03;;;;;;;58.15;20.55;;;;;;;;;;4982287;28;20848;-82
2021/12/27 12:30:32;;;;;;;55.38;20.17;;;;;;;;;;4988434;28;20043;-81
2021/12/27 12:33:04;;;;;;;55.92;19.42;;;;;;;;;;4992563;28;20039;-82
2021/12/27 12:35:34;;;;;;;52.08;20.00;;;;;;;;;;4995364;28;20045;-84
2021/12/27 12:38:38;;;;;;;57.92;20.45;;;;;;;;;;4992716;28;20075;-79
2021/12/27 12:41:11;;;;;;;53.47;19.92;;;;;;;;;;4978113;28;20532;-80
2021/12/27 12:43:57;;;;;;;50.92;20.50;;;;;;;;;;4994585;28;20041;-79
2021/12/27 12:46:27;;;;;;;55.63;19.38;;;;;;;;;;4993877;28;20049;-81
2021/12/27 12:49:05;;;;;;;61.42;19.73;;;;;;;;;;4994942;28;20045;-80
2021/12/27 12:51:34;;;;;;;49.92;18.80;;;;;;;;;;4979983;28;20034;-82
2021/12/27 12:54:01;;;;;;;57.30;20.27;;;;;;;;;;4985574;28;20520;-78
2021/12/27 12:56:33;;;;;;;64.72;22.23;;;;;;;;;;4988296;28;20398;-78
2021/12/27 12:59:00;;;;;;;55.35;22.00;;;;;;;;;;4995405;28;20046;-83
2021/12/27 13:01:26;;;;;;;51.20;20.80;;;;;;;;;;4996044;28;20632;-80
2021/12/27 13:04:02;;;;;;;56.35;20.80;;;;;;;;;;4996679;28;20045;-80
2021/12/27 13:06:28;;;;;;;52.38;20.83;;;;;;;;;;4997165;28;20473;-79
2021/12/27 13:08:56;;;;;;;57.80;22.75;;;;;;;;;;4998666;28;20034;-80
2021/12/27 13:11:22;;;;;;;58.25;22.63;;;;;;;;;;4978954;28;20041;-80
2021/12/27 13:14:01;;;;;;;53.95;22.40;;;;;;;;;;4995199;28;20046;-80
2021/12/27 13:16:29;;;;;;;58.63;21.50;;;;;;;;;;5007331;28;20050;-80
2021/12/27 13:18:55;;;;;;;56.65;21.35;;;;;;;;;;5014378;28;20022;-80
2021/12/27 13:21:27;;;;;;;55.85;21.90;;;;;;;;;;5034390;28;20034;-80
2021/12/27 13:23:53;;;;;;;48.60;20.98;;;;;;;;;;5019015;28;20010;-80
2021/12/27 13:26:19;;;;;;;45.33;19.30;;;;;;;;;;5017535;28;20094;-81
2021/12/27 13:28:49;;;;;;;45.92;21.08;;;;;;;;;;5018467;28;20034;-81
2021/12/27 13:31:19;;;;;;;50.85;19.98;;;;;;;;;;5019432;28;20029;-80
2021/12/27 13:33:54;;;;;;;45.38;20.90;;;;;;;;;;5027819;28;20056;-82
2021/12/27 13:36:20;;;;;;;51.97;22.33;;;;;;;;;;5015137;28;20051;-82
2021/12/27 13:39:08;;;;;;;57.80;21.65;;;;;;;;;;5014180;28;20078;-82
2021/12/27 13:41:37;;;;;;;59.58;22.48;;;;;;;;;;5016085;28;20018;-80
2021/12/27 13:44:07;;;;;;;51.50;21.38;;;;;;;;;;5014765;28;20048;-80
2021/12/27 13:46:54;;;;;;;55.67;22.52;;;;;;;;;;5016580;28;20033;-79
2021/12/27 13:49:20;;;;;;;53.30;22.13;;;;;;;;;;5003213;28;20013;-80
2021/12/27 13:51:55;;;;;;;50.10;20.98;;;;;;;;;;5018797;28;20022;-80
2021/12/27 13:54:21;;;;;;;52.58;20.63;;;;;;;;;;5008214;28;20026;-81
2021/12/27 13:56:47;;;;;;;53.17;20.63;;;;;;;;;;4998709;28;20058;-81
2021/12/27 13:59:18;;;;;;;53.13;21.40;;;;;;;;;;4992521;28;20041;-83
2021/12/27 14:01:59;;;;;;;45.15;20.90;;;;;;;;;;4994355;28;20038;-83
2021/12/27 14:04:25;;;;;;;46.42;20.27;;;;;;;;;;5006958;28;20045;-83
2021/12/27 14:06:53;;;;;;;52.08;21.70;;;;;;;;;;5012525;28;20038;-84
2021/12/27 14:09:30;;;;;;;53.85;21.08;;;;;;;;;;5012212;28;20028;-86
2021/12/27 14:12:01;;;;;;;56.38;22.42;;;;;;;;;;5005849;28;20022;-85
2021/12/27 14:14:39;;;;;;;50.03;20.15;;;;;;;;;;4984452;28;20045;-87
2021/12/27 14:17:20;;;;;;;48.70;20.30;;;;;;;;;;4981608;28;20389;-87
2021/12/27 14:19:47;;;;;;;53.88;21.05;;;;;;;;;;4979947;28;20477;-88
2021/12/27 14:22:23;;;;;;;42.03;19.23;;;;;;;;;;4989844;28;20037;-89
2021/12/27 14:25:01;;;;;;;47.20;19.92;;;;;;;;;;5012905;28;20049;-88
2021/12/27 14:27:42;;;;;;;47.22;20.52;;;;;;;;;;4999505;28;20034;-86
2021/12/27 14:30:28;;;;;;;45.38;20.25;;;;;;;;;;4998236;28;20366;-88